createdAt,value
2023-03-24T00:04:53.626Z,98541.80
2023-03-24T00:10:01.893Z,98539.43
2023-03-24T00:15:13.200Z,98543.08
2023-03-24T00:20:23.022Z,98537.52
2023-03-24T00:25:36.541Z,98538.01
2023-03-24T00:30:51.947Z,98540.95
2023-03-24T00:35:59.282Z,98543.55
2023-03-24T00:46:11.642Z,98537.59
2023-03-24T00:51:18.964Z,98531.08
2023-03-24T00:56:29.579Z,98524.85
2023-03-24T01:01:39.827Z,98518.83
2023-03-24T01:06:49.944Z,98516.64
2023-03-24T01:11:57.775Z,98515.15
2023-03-24T01:17:06.831Z,98514.79
2023-03-24T01:22:14.446Z,98511.56
2023-03-24T01:27:21.847Z,98501.81
2023-03-24T01:32:29.417Z,98496.28
2023-03-24T01:37:37.387Z,98502.17
2023-03-24T01:42:44.888Z,98501.11
2023-03-24T01:47:53.207Z,98497.69
2023-03-24T01:53:02.271Z,98497.60
2023-03-24T01:58:10.400Z,98493.65
2023-03-24T02:03:23.035Z,98491.58
2023-03-24T02:08:36.503Z,98489.57
2023-03-24T02:13:43.786Z,98490.48
2023-03-24T02:19:02.264Z,98488.46
2023-03-24T02:24:43.432Z,98483.16
2023-03-24T02:30:25.202Z,98476.33
2023-03-24T02:35:54.388Z,98469.87
2023-03-24T02:41:05.352Z,98467.94
2023-03-24T02:46:22.494Z,98471.95
2023-03-24T02:51:36.930Z,98466.30
2023-03-24T02:56:49.351Z,98462.01
2023-03-24T03:02:03.308Z,98460.14
2023-03-24T03:07:17.130Z,98455.66
2023-03-24T03:12:27.906Z,98452.67
2023-03-24T03:17:40.228Z,98440.25
2023-03-24T03:22:52.119Z,98432.63
2023-03-24T03:28:03.902Z,98429.69
2023-03-24T03:33:18.512Z,98437.53
2023-03-24T03:38:33.738Z,98441.67
2023-03-24T03:43:41.476Z,98447.04
2023-03-24T03:48:49.814Z,98447.48
2023-03-24T03:54:01.900Z,98443.27
2023-03-24T03:59:11.905Z,98434.91
2023-03-24T04:04:41.060Z,98429.48
2023-03-24T04:10:06.753Z,98418.27
2023-03-24T04:15:31.980Z,98416.46
2023-03-24T04:20:48.412Z,98414.77
2023-03-24T04:26:07.531Z,98419.45
2023-03-24T04:31:23.937Z,98421.23
2023-03-24T04:36:42.725Z,98420.59
2023-03-24T04:41:50.853Z,98421.63
2023-03-24T04:47:03.615Z,98427.14
2023-03-24T04:52:11.093Z,98434.67
2023-03-24T04:57:19.021Z,98437.73
2023-03-24T05:02:27.564Z,98442.23
2023-03-24T05:07:35.150Z,98444.95
2023-03-24T05:12:42.657Z,98446.52
2023-03-24T05:17:50.208Z,98448.64
2023-03-24T05:22:58.209Z,98448.57
2023-03-24T05:28:07.442Z,98454.33
2023-03-24T05:35:59.038Z,98452.30
2023-03-24T05:41:07.451Z,98450.08
2023-03-24T05:46:14.862Z,98454.05
2023-03-24T05:51:22.788Z,98454.13
2023-03-24T05:56:31.766Z,98454.45
2023-03-24T06:01:39.958Z,98453.63
2023-03-24T06:06:47.514Z,98461.35
2023-03-24T06:11:55.025Z,98460.42
2023-03-24T06:17:02.413Z,98463.26
2023-03-24T06:22:09.933Z,98462.51
2023-03-24T06:27:19.067Z,98459.17
2023-03-24T06:32:27.337Z,98461.36
2023-03-24T06:37:34.782Z,98460.66
2023-03-24T06:42:42.311Z,98452.94
2023-03-24T06:47:49.982Z,98449.93
2023-03-24T06:52:57.447Z,98442.25
2023-03-24T06:58:05.085Z,98439.21
2023-03-24T07:03:12.743Z,98441.29
2023-03-24T07:08:36.708Z,98437.27
2023-03-24T07:13:46.100Z,98440.66
2023-03-24T07:18:53.537Z,98440.49
2023-03-24T07:24:03.271Z,98438.16
2023-03-24T07:29:11.237Z,98442.21
2023-03-24T07:34:18.878Z,98440.26
2023-03-24T07:39:26.713Z,98436.96
2023-03-24T07:44:34.330Z,98433.02
2023-03-24T07:49:41.822Z,98432.08
2023-03-24T07:54:49.344Z,98434.73
2023-03-24T07:59:56.960Z,98424.77
2023-03-24T08:05:06.492Z,98415.62
2023-03-24T08:10:16.772Z,98409.16
2023-03-24T08:15:24.274Z,98394.95
2023-03-24T08:20:31.695Z,98389.09
2023-03-24T08:25:39.717Z,98376.88
2023-03-24T08:30:48.274Z,98373.47
2023-03-24T08:35:58.042Z,98373.21
2023-03-24T08:41:08.831Z,98373.64
2023-03-24T08:46:16.982Z,98370.89
2023-03-24T08:51:25.130Z,98366.09
2023-03-24T08:56:33.354Z,98360.42
2023-03-24T09:01:41.603Z,98355.95
2023-03-24T09:06:50.381Z,98354.02
2023-03-24T09:11:58.631Z,98348.97
2023-03-24T09:17:06.492Z,98340.50
2023-03-24T09:22:14.479Z,98333.33
2023-03-24T09:27:23.865Z,98322.34
2023-03-24T09:32:32.147Z,98311.25
2023-03-24T09:46:16.581Z,98298.45
2023-03-24T09:51:26.599Z,98286.88
2023-03-24T09:56:38.004Z,98280.79
2023-03-24T10:01:45.696Z,98272.88
2023-03-24T10:06:58.775Z,98262.36
2023-03-24T10:12:19.102Z,98251.31
2023-03-24T10:17:38.517Z,98249.02
2023-03-24T10:22:56.041Z,98244.58
2023-03-24T10:28:07.450Z,98232.77
2023-03-24T10:33:15.875Z,98223.06
2023-03-24T10:44:03.883Z,98208.30
2023-03-24T10:49:21.638Z,98203.85
2023-03-24T10:54:30.641Z,98200.96
2023-03-24T10:59:47.818Z,98197.44
2023-03-24T11:05:01.457Z,98193.98
2023-03-24T11:10:17.484Z,98191.52
2023-03-24T11:15:29.505Z,98181.93
2023-03-24T11:20:39.246Z,98179.86
2023-03-24T11:26:03.070Z,98166.84
2023-03-24T11:31:19.433Z,98163.10
2023-03-24T11:36:53.382Z,98150.78
2023-03-24T11:42:15.171Z,98146.13
2023-03-24T11:47:29.279Z,98141.78
2023-03-24T11:52:40.834Z,98138.94
2023-03-24T11:57:58.359Z,98127.16
2023-03-24T12:03:45.079Z,98122.48
2023-03-24T12:08:57.921Z,98116.83
2023-03-24T12:21:23.523Z,98100.08
2023-03-24T12:26:32.764Z,98101.52
2023-03-24T12:32:10.014Z,98097.98
2023-03-24T12:37:26.578Z,98099.98
2023-03-24T12:42:41.165Z,98093.02
2023-03-24T12:48:16.277Z,98095.25
2023-03-24T12:53:53.949Z,98094.62
2023-03-24T12:59:02.866Z,98087.50
2023-03-24T13:04:16.964Z,98081.23
2023-03-24T13:09:35.755Z,98074.70
2023-03-24T13:14:54.071Z,98076.54
2023-03-24T13:20:06.802Z,98071.45
2023-03-24T13:25:26.925Z,98068.02
2023-03-24T13:30:41.735Z,98065.49
2023-03-24T13:36:14.826Z,98056.14
2023-03-24T13:41:27.371Z,98049.90
2023-03-24T13:46:37.863Z,98042.99
2023-03-24T13:51:48.458Z,98042.36
2023-03-24T13:57:05.901Z,98039.15
2023-03-24T14:02:47.254Z,98044.96
2023-03-24T14:08:11.102Z,98041.14
2023-03-24T14:13:38.233Z,98045.39
2023-03-24T14:18:46.326Z,98043.23
2023-03-24T14:23:56.842Z,98037.77
2023-03-24T14:29:06.403Z,98032.27
2023-03-24T14:34:20.532Z,98021.37
2023-03-24T14:39:35.892Z,98008.21
2023-03-24T14:45:00.502Z,98004.31
2023-03-24T14:50:20.474Z,97997.54
2023-03-24T14:55:29.384Z,97993.38
2023-03-24T15:00:49.385Z,97986.30
2023-03-24T15:06:16.273Z,97979.98
2023-03-24T15:11:27.437Z,97972.98
2023-03-24T15:16:37.792Z,97961.30
2023-03-24T15:21:50.485Z,97958.45
2023-03-24T15:27:16.016Z,97953.81
2023-03-24T15:32:25.330Z,97950.70
2023-03-24T15:37:40.594Z,97949.79
2023-03-24T15:46:24.610Z,97949.63
2023-03-24T15:51:50.332Z,97955.11
2023-03-24T15:57:16.834Z,97951.85
2023-03-24T16:02:33.300Z,97959.34
2023-03-24T16:07:43.513Z,97956.39
2023-03-24T16:12:50.927Z,97953.01
2023-03-24T16:17:58.323Z,97953.58
2023-03-24T16:23:06.024Z,97953.11
2023-03-24T16:28:17.380Z,97957.96
2023-03-24T16:33:24.937Z,97964.69
2023-03-24T16:38:33.576Z,97969.47
2023-03-24T16:43:40.949Z,97973.88
2023-03-24T16:48:49.881Z,97981.89
2023-03-24T16:53:57.264Z,97989.66
2023-03-24T16:59:05.551Z,98001.77
2023-03-24T17:04:16.460Z,98008.83
2023-03-24T17:09:24.405Z,98017.46
2023-03-24T17:14:32.630Z,98030.10
2023-03-24T17:19:42.267Z,98032.30
2023-03-24T17:24:51.402Z,98027.27
2023-03-24T17:29:58.898Z,98032.04
2023-03-24T17:35:09.614Z,98030.11
2023-03-24T17:40:19.175Z,98033.39
2023-03-24T17:45:26.734Z,98034.94
2023-03-24T17:50:34.418Z,98040.51
2023-03-24T17:55:42.459Z,98041.30
2023-03-24T18:00:51.372Z,98038.84
2023-03-24T18:06:06.171Z,98044.69
2023-03-24T18:11:16.197Z,98045.22
2023-03-24T18:16:25.475Z,98046.93
2023-03-24T18:21:33.892Z,98043.89
2023-03-24T18:26:41.876Z,98053.78
2023-03-24T18:31:50.254Z,98058.98
2023-03-24T18:36:59.014Z,98064.05
2023-03-24T18:42:07.283Z,98062.98
2023-03-24T18:47:14.778Z,98057.55
2023-03-24T18:52:22.395Z,98048.54
2023-03-24T18:57:29.835Z,98053.50
2023-03-24T19:02:37.232Z,98069.31
2023-03-24T19:07:47.293Z,98076.40
2023-03-24T19:12:55.889Z,98073.62
2023-03-24T19:18:03.831Z,98078.59
2023-03-24T19:23:12.125Z,98080.64
2023-03-24T19:28:19.514Z,98086.19
2023-03-24T19:33:27.077Z,98081.86
2023-03-24T19:38:35.341Z,98048.61
2023-03-24T19:43:42.776Z,98030.01
2023-03-24T19:48:50.554Z,98040.92
2023-03-24T19:53:57.882Z,98039.79
2023-03-24T19:59:06.376Z,98036.27
2023-03-24T20:04:14.195Z,98033.41
2023-03-24T20:09:22.034Z,98039.27
2023-03-24T20:14:31.866Z,98038.48
2023-03-24T20:19:40.134Z,98030.77
2023-03-24T20:24:49.074Z,98012.27
2023-03-24T20:29:58.023Z,98005.05
2023-03-24T20:35:06.315Z,98023.02
2023-03-24T20:40:14.866Z,98026.07
2023-03-24T20:45:24.199Z,98028.19
2023-03-24T20:50:32.025Z,98031.48
2023-03-24T20:55:39.798Z,98036.95
2023-03-24T21:00:52.276Z,98042.38
2023-03-24T21:06:00.361Z,98048.84
2023-03-24T21:11:08.200Z,98051.91
2023-03-24T21:16:16.936Z,98049.63
2023-03-24T21:21:24.649Z,98049.86
2023-03-24T21:29:31.903Z,98052.73
2023-03-24T21:34:36.076Z,98052.34
2023-03-24T21:39:40.483Z,98045.92
2023-03-24T21:44:45.609Z,98030.98
2023-03-24T21:49:52.617Z,98029.44
2023-03-24T21:54:57.937Z,98034.06
2023-03-24T22:00:09.475Z,98037.40
2023-03-24T22:05:14.725Z,98041.77
2023-03-24T22:10:22.622Z,98042.91
2023-03-24T22:15:27.048Z,98046.45
2023-03-24T22:20:33.012Z,98043.08
2023-03-24T22:25:37.436Z,98039.45
2023-03-24T22:30:42.352Z,98036.39
2023-03-24T22:35:46.567Z,98037.14
2023-03-24T22:40:50.634Z,98036.29
2023-03-24T22:45:55.268Z,98027.61
2023-03-24T22:50:59.597Z,98023.12
2023-03-24T22:56:05.643Z,98016.91
2023-03-24T23:01:10.128Z,98011.47
2023-03-24T23:06:15.562Z,98006.03
2023-03-24T23:11:19.914Z,98005.36
2023-03-24T23:16:24.222Z,98002.33
2023-03-24T23:21:29.306Z,98000.04
2023-03-24T23:36:39.531Z,98005.89
2023-03-24T23:41:47.066Z,97998.00
2023-03-24T23:46:54.912Z,97994.80
2023-03-24T23:52:02.352Z,97989.80
2023-03-24T23:57:09.955Z,97988.73
